sensor_id;sensor_type;location;lat;lon;timestamp;pressure;altitude;pressure_sealevel;temperature;humidity
9059;BME280;4564;42.034;25.834;2022-12-07T00:01:24;100464.09;;;7.37;100.00
9059;BME280;4564;42.034;25.834;2022-12-07T00:03:52;100459.41;;;7.47;100.00
9059;BME280;4564;42.034;25.834;2022-12-07T00:06:19;100462.59;;;7.51;100.00
9059;BME280;4564;42.034;25.834;2022-12-07T00:08:46;100465.31;;;7.51;100.00
9059;BME280;4564;42.034;25.834;2022-12-07T00:11:13;100474.09;;;7.53;100.00
9059;BME280;4564;42.034;25.834;2022-12-07T00:13:42;100469.03;;;7.50;100.00
9059;BME280;4564;42.034;25.834;2022-12-07T00:16:09;100463.50;;;7.59;100.00
9059;BME280;4564;42.034;25.834;2022-12-07T00:18:36;100471.75;;;7.58;100.00
9059;BME280;4564;42.034;25.834;2022-12-07T00:21:04;100476.47;;;7.56;100.00
9059;BME280;4564;42.034;25.834;2022-12-07T00:23:31;100465.50;;;7.49;100.00
9059;BME280;4564;42.034;25.834;2022-12-07T00:26:02;100466.50;;;7.48;100.00
9059;BME280;4564;42.034;25.834;2022-12-07T00:28:29;100471.59;;;7.59;100.00
9059;BME280;4564;42.034;25.834;2022-12-07T00:31:00;100476.34;;;7.66;100.00
9059;BME280;4564;42.034;25.834;2022-12-07T00:33:27;100464.03;;;7.71;100.00
9059;BME280;4564;42.034;25.834;2022-12-07T00:35:55;100465.06;;;7.78;100.00
9059;BME280;4564;42.034;25.834;2022-12-07T00:38:21;100464.38;;;7.76;100.00
9059;BME280;4564;42.034;25.834;2022-12-07T00:40:53;100467.06;;;7.68;100.00
9059;BME280;4564;42.034;25.834;2022-12-07T00:43:19;100467.59;;;7.72;100.00
9059;BME280;4564;42.034;25.834;2022-12-07T00:45:46;100468.28;;;7.82;100.00
9059;BME280;4564;42.034;25.834;2022-12-07T00:48:14;100465.44;;;7.99;100.00
9059;BME280;4564;42.034;25.834;2022-12-07T00:50:41;100466.94;;;7.86;100.00
9059;BME280;4564;42.034;25.834;2022-12-07T00:53:07;100461.34;;;7.79;100.00
9059;BME280;4564;42.034;25.834;2022-12-07T00:55:34;100457.25;;;7.67;100.00
9059;BME280;4564;42.034;25.834;2022-12-07T00:58:01;100469.75;;;7.60;100.00
9059;BME280;4564;42.034;25.834;2022-12-07T01:00:27;100455.53;;;7.58;100.00
9059;BME280;4564;42.034;25.834;2022-12-07T01:02:54;100459.44;;;7.64;100.00
9059;BME280;4564;42.034;25.834;2022-12-07T01:05:22;100456.25;;;7.68;100.00
9059;BME280;4564;42.034;25.834;2022-12-07T01:07:48;100458.63;;;7.71;100.00
9059;BME280;4564;42.034;25.834;2022-12-07T01:10:15;100450.38;;;7.81;100.00
9059;BME280;4564;42.034;25.834;2022-12-07T01:12:42;100454.13;;;7.88;100.00
9059;BME280;4564;42.034;25.834;2022-12-07T01:15:09;100457.31;;;7.91;100.00
9059;BME280;4564;42.034;25.834;2022-12-07T01:17:36;100443.81;;;7.99;100.00
9059;BME280;4564;42.034;25.834;2022-12-07T01:20:03;100438.41;;;7.99;100.00
9059;BME280;4564;42.034;25.834;2022-12-07T01:22:31;100439.09;;;8.01;100.00
9059;BME280;4564;42.034;25.834;2022-12-07T01:24:57;100445.19;;;8.04;100.00
9059;BME280;4564;42.034;25.834;2022-12-07T01:27:24;100443.16;;;7.97;100.00
9059;BME280;4564;42.034;25.834;2022-12-07T01:29:51;100432.16;;;7.99;100.00
9059;BME280;4564;42.034;25.834;2022-12-07T01:32:17;100427.94;;;8.05;100.00
9059;BME280;4564;42.034;25.834;2022-12-07T01:34:44;100426.63;;;8.09;100.00
9059;BME280;4564;42.034;25.834;2022-12-07T01:37:10;100427.78;;;8.06;100.00
9059;BME280;4564;42.034;25.834;2022-12-07T01:39:38;100426.94;;;8.06;100.00
9059;BME280;4564;42.034;25.834;2022-12-07T01:42:07;100429.28;;;8.00;100.00
9059;BME280;4564;42.034;25.834;2022-12-07T01:47:16;100435.72;;;8.08;100.00
9059;BME280;4564;42.034;25.834;2022-12-07T01:49:43;100426.28;;;8.04;100.00
9059;BME280;4564;42.034;25.834;2022-12-07T01:52:13;100420.34;;;8.08;100.00
9059;BME280;4564;42.034;25.834;2022-12-07T01:54:41;100414.94;;;8.16;100.00
9059;BME280;4564;42.034;25.834;2022-12-07T01:57:08;100423.56;;;8.20;100.00
9059;BME280;4564;42.034;25.834;2022-12-07T01:59:35;100416.78;;;8.16;100.00
9059;BME280;4564;42.034;25.834;2022-12-07T02:02:03;100415.44;;;8.12;100.00
9059;BME280;4564;42.034;25.834;2022-12-07T02:04:32;100412.06;;;8.01;100.00
9059;BME280;4564;42.034;25.834;2022-12-07T02:06:59;100414.25;;;7.90;100.00
9059;BME280;4564;42.034;25.834;2022-12-07T02:09:26;100418.31;;;7.94;100.00
9059;BME280;4564;42.034;25.834;2022-12-07T02:11:54;100416.13;;;7.97;100.00
9059;BME280;4564;42.034;25.834;2022-12-07T02:14:21;100414.44;;;7.96;100.00
9059;BME280;4564;42.034;25.834;2022-12-07T02:16:51;100417.28;;;7.95;100.00
9059;BME280;4564;42.034;25.834;2022-12-07T02:22:11;100401.41;;;7.84;100.00
9059;BME280;4564;42.034;25.834;2022-12-07T02:24:45;100405.94;;;7.67;100.00
9059;BME280;4564;42.034;25.834;2022-12-07T02:27:24;100397.69;;;7.69;100.00
9059;BME280;4564;42.034;25.834;2022-12-07T02:29:56;100405.63;;;7.78;100.00
9059;BME280;4564;42.034;25.834;2022-12-07T02:32:26;100395.16;;;7.83;100.00
9059;BME280;4564;42.034;25.834;2022-12-07T02:34:54;100397.19;;;7.81;100.00
9059;BME280;4564;42.034;25.834;2022-12-07T02:37:25;100398.56;;;7.85;100.00
9059;BME280;4564;42.034;25.834;2022-12-07T02:39:54;100390.47;;;7.93;100.00
9059;BME280;4564;42.034;25.834;2022-12-07T02:42:25;100386.91;;;7.93;100.00
9059;BME280;4564;42.034;25.834;2022-12-07T02:44:53;100393.50;;;7.90;100.00
9059;BME280;4564;42.034;25.834;2022-12-07T02:47:21;100387.41;;;7.88;100.00
9059;BME280;4564;42.034;25.834;2022-12-07T02:49:48;100393.97;;;7.94;100.00
9059;BME280;4564;42.034;25.834;2022-12-07T02:52:15;100388.25;;;7.97;100.00
9059;BME280;4564;42.034;25.834;2022-12-07T02:54:42;100382.69;;;7.98;100.00
9059;BME280;4564;42.034;25.834;2022-12-07T02:57:19;100385.06;;;7.93;100.00
9059;BME280;4564;42.034;25.834;2022-12-07T02:59:52;100383.38;;;7.92;100.00
9059;BME280;4564;42.034;25.834;2022-12-07T03:02:28;100380.81;;;7.91;100.00
9059;BME280;4564;42.034;25.834;2022-12-07T03:05:03;100385.06;;;7.93;100.00
9059;BME280;4564;42.034;25.834;2022-12-07T03:07:36;100376.97;;;7.93;100.00
9059;BME280;4564;42.034;25.834;2022-12-07T03:10:07;100381.66;;;7.99;100.00
9059;BME280;4564;42.034;25.834;2022-12-07T03:12:37;100374.56;;;8.07;100.00
9059;BME280;4564;42.034;25.834;2022-12-07T03:15:09;100375.25;;;8.09;100.00
9059;BME280;4564;42.034;25.834;2022-12-07T03:17:39;100378.63;;;8.19;100.00
9059;BME280;4564;42.034;25.834;2022-12-07T03:20:09;100373.91;;;8.13;100.00
9059;BME280;4564;42.034;25.834;2022-12-07T03:22:37;100378.63;;;8.11;100.00
9059;BME280;4564;42.034;25.834;2022-12-07T03:25:06;100367.66;;;8.04;100.00
9059;BME280;4564;42.034;25.834;2022-12-07T03:27:36;100376.28;;;8.08;100.00
9059;BME280;4564;42.034;25.834;2022-12-07T03:30:05;100370.88;;;8.08;100.00
9059;BME280;4564;42.034;25.834;2022-12-07T03:32:33;100373.56;;;8.08;100.00
9059;BME280;4564;42.034;25.834;2022-12-07T03:35:03;100386.41;;;8.06;100.00
9059;BME280;4564;42.034;25.834;2022-12-07T03:37:33;100377.97;;;8.09;100.00
9059;BME280;4564;42.034;25.834;2022-12-07T03:40:02;100382.53;;;8.08;100.00
9059;BME280;4564;42.034;25.834;2022-12-07T03:42:30;100384.53;;;8.22;100.00
9059;BME280;4564;42.034;25.834;2022-12-07T03:44:57;100371.53;;;8.26;100.00
9059;BME280;4564;42.034;25.834;2022-12-07T03:47:26;100378.97;;;8.32;100.00
9059;BME280;4564;42.034;25.834;2022-12-07T03:49:55;100381.03;;;8.30;100.00
9059;BME280;4564;42.034;25.834;2022-12-07T03:52:25;100382.38;;;8.34;100.00
9059;BME280;4564;42.034;25.834;2022-12-07T03:54:56;100377.44;;;8.29;100.00
9059;BME280;4564;42.034;25.834;2022-12-07T03:57:25;100379.66;;;8.34;100.00
9059;BME280;4564;42.034;25.834;2022-12-07T03:59:53;100376.97;;;8.34;100.00
9059;BME280;4564;42.034;25.834;2022-12-07T04:02:20;100373.41;;;8.25;100.00
9059;BME280;4564;42.034;25.834;2022-12-07T04:04:48;100369.84;;;8.25;100.00
9059;BME280;4564;42.034;25.834;2022-12-07T04:07:15;100374.91;;;8.20;100.00
9059;BME280;4564;42.034;25.834;2022-12-07T04:09:43;100374.56;;;8.23;100.00
9059;BME280;4564;42.034;25.834;2022-12-07T04:12:10;100369.84;;;8.17;100.00
9059;BME280;4564;42.034;25.834;2022-12-07T04:14:36;100365.44;;;8.16;100.00
9059;BME280;4564;42.034;25.834;2022-12-07T04:17:03;100364.94;;;8.12;100.00
9059;BME280;4564;42.034;25.834;2022-12-07T04:19:30;100361.06;;;8.15;100.00
9059;BME280;4564;42.034;25.834;2022-12-07T04:21:57;100365.28;;;8.17;100.00
9059;BME280;4564;42.034;25.834;2022-12-07T04:24:24;100369.69;;;8.18;100.00
9059;BME280;4564;42.034;25.834;2022-12-07T04:26:52;100359.38;;;8.14;100.00
9059;BME280;4564;42.034;25.834;2022-12-07T04:29:19;100362.41;;;8.19;100.00
9059;BME280;4564;42.034;25.834;2022-12-07T04:31:46;100355.81;;;8.21;100.00
9059;BME280;4564;42.034;25.834;2022-12-07T04:34:13;100354.81;;;8.14;100.00
9059;BME280;4564;42.034;25.834;2022-12-07T04:36:40;100360.38;;;8.13;100.00
9059;BME280;4564;42.034;25.834;2022-12-07T04:39:07;100364.28;;;8.18;100.00
9059;BME280;4564;42.034;25.834;2022-12-07T04:41:33;100367.66;;;8.12;100.00
9059;BME280;4564;42.034;25.834;2022-12-07T04:44:02;100359.53;;;8.12;100.00
9059;BME280;4564;42.034;25.834;2022-12-07T04:46:32;100365.47;;;8.08;100.00
9059;BME280;4564;42.034;25.834;2022-12-07T04:48:59;100360.22;;;8.06;100.00
9059;BME280;4564;42.034;25.834;2022-12-07T04:51:26;100378.47;;;8.12;100.00
9059;BME280;4564;42.034;25.834;2022-12-07T04:53:54;100374.25;;;8.10;100.00
9059;BME280;4564;42.034;25.834;2022-12-07T04:56:21;100364.78;;;8.14;100.00
9059;BME280;4564;42.034;25.834;2022-12-07T04:58:49;100365.63;;;8.14;100.00
9059;BME280;4564;42.034;25.834;2022-12-07T05:01:17;100369.66;;;8.10;100.00
9059;BME280;4564;42.034;25.834;2022-12-07T05:03:43;100374.75;;;8.13;100.00
9059;BME280;4564;42.034;25.834;2022-12-07T05:06:10;100375.91;;;8.11;100.00
9059;BME280;4564;42.034;25.834;2022-12-07T05:08:37;100378.81;;;8.09;100.00
9059;BME280;4564;42.034;25.834;2022-12-07T05:11:04;100379.47;;;8.11;100.00
9059;BME280;4564;42.034;25.834;2022-12-07T05:13:31;100384.38;;;8.08;100.00
9059;BME280;4564;42.034;25.834;2022-12-07T05:15:58;100376.75;;;8.11;100.00
9059;BME280;4564;42.034;25.834;2022-12-07T05:18:26;100377.97;;;8.09;100.00
9059;BME280;4564;42.034;25.834;2022-12-07T05:20:53;100375.25;;;8.09;100.00
9059;BME280;4564;42.034;25.834;2022-12-07T05:23:19;100376.59;;;8.21;100.00
9059;BME280;4564;42.034;25.834;2022-12-07T05:25:46;100375.91;;;8.27;100.00
9059;BME280;4564;42.034;25.834;2022-12-07T05:28:13;100374.25;;;8.26;100.00
9059;BME280;4564;42.034;25.834;2022-12-07T05:30:39;100373.72;;;8.22;100.00
9059;BME280;4564;42.034;25.834;2022-12-07T05:33:06;100376.25;;;8.24;100.00
9059;BME280;4564;42.034;25.834;2022-12-07T05:35:34;100381.16;;;8.28;100.00
9059;BME280;4564;42.034;25.834;2022-12-07T05:38:03;100380.47;;;8.26;100.00
9059;BME280;4564;42.034;25.834;2022-12-07T05:40:29;100377.31;;;8.31;100.00
9059;BME280;4564;42.034;25.834;2022-12-07T05:42:56;100368.84;;;8.34;100.00
9059;BME280;4564;42.034;25.834;2022-12-07T05:45:22;100366.63;;;8.29;100.00
9059;BME280;4564;42.034;25.834;2022-12-07T05:47:48;100366.50;;;8.31;100.00
9059;BME280;4564;42.034;25.834;2022-12-07T05:50:15;100365.66;;;8.30;100.00
9059;BME280;4564;42.034;25.834;2022-12-07T05:52:43;100360.38;;;8.21;100.00
9059;BME280;4564;42.034;25.834;2022-12-07T05:55:09;100366.47;;;8.15;100.00
9059;BME280;4564;42.034;25.834;2022-12-07T05:57:36;100376.28;;;8.08;100.00
9059;BME280;4564;42.034;25.834;2022-12-07T06:00:03;100373.41;;;8.09;100.00
9059;BME280;4564;42.034;25.834;2022-12-07T06:02:29;100371.03;;;8.14;100.00
9059;BME280;4564;42.034;25.834;2022-12-07T06:04:55;100368.16;;;8.32;100.00
9059;BME280;4564;42.034;25.834;2022-12-07T06:07:22;100373.88;;;8.29;100.00
9059;BME280;4564;42.034;25.834;2022-12-07T06:09:50;100374.06;;;8.27;100.00
9059;BME280;4564;42.034;25.834;2022-12-07T06:12:17;100376.59;;;8.37;100.00
9059;BME280;4564;42.034;25.834;2022-12-07T06:15:03;100372.19;;;8.44;100.00
9059;BME280;4564;42.034;25.834;2022-12-07T06:17:30;100375.59;;;8.46;100.00
9059;BME280;4564;42.034;25.834;2022-12-07T06:19:57;100374.56;;;8.55;100.00
9059;BME280;4564;42.034;25.834;2022-12-07T06:22:23;100378.91;;;8.64;100.00
9059;BME280;4564;42.034;25.834;2022-12-07T06:24:51;100382.63;;;8.79;100.00
9059;BME280;4564;42.034;25.834;2022-12-07T06:27:18;100380.88;;;8.95;100.00
9059;BME280;4564;42.034;25.834;2022-12-07T06:29:45;100382.63;;;9.18;100.00
9059;BME280;4564;42.034;25.834;2022-12-07T06:32:11;100379.66;;;9.36;100.00
9059;BME280;4564;42.034;25.834;2022-12-07T06:34:38;100386.69;;;9.53;100.00
9059;BME280;4564;42.034;25.834;2022-12-07T06:37:04;100383.75;;;9.63;100.00
9059;BME280;4564;42.034;25.834;2022-12-07T06:39:31;100391.03;;;9.62;100.00
9059;BME280;4564;42.034;25.834;2022-12-07T06:41:59;100392.00;;;9.69;100.00
9059;BME280;4564;42.034;25.834;2022-12-07T06:44:25;100386.72;;;9.76;100.00
9059;BME280;4564;42.034;25.834;2022-12-07T06:46:52;100392.22;;;9.83;100.00
9059;BME280;4564;42.034;25.834;2022-12-07T06:49:19;100386.06;;;9.97;100.00
9059;BME280;4564;42.034;25.834;2022-12-07T06:51:46;100390.31;;;10.14;100.00
9059;BME280;4564;42.034;25.834;2022-12-07T06:54:13;100395.66;;;10.30;100.00
9059;BME280;4564;42.034;25.834;2022-12-07T06:56:40;100397.53;;;10.44;98.84
9059;BME280;4564;42.034;25.834;2022-12-07T06:59:08;100395.09;;;10.49;98.85
9059;BME280;4564;42.034;25.834;2022-12-07T07:01:35;100392.03;;;10.52;97.84
9059;BME280;4564;42.034;25.834;2022-12-07T07:04:01;100392.53;;;10.71;97.84
9059;BME280;4564;42.034;25.834;2022-12-07T07:06:28;100392.25;;;10.80;96.58
9059;BME280;4564;42.034;25.834;2022-12-07T07:08:55;100398.91;;;10.78;96.60
9059;BME280;4564;42.034;25.834;2022-12-07T07:11:21;100391.41;;;10.80;96.27
9059;BME280;4564;42.034;25.834;2022-12-07T07:13:48;100404.88;;;10.88;96.42
9059;BME280;4564;42.034;25.834;2022-12-07T07:16:16;100394.50;;;10.91;95.20
9059;BME280;4564;42.034;25.834;2022-12-07T07:18:44;100391.22;;;10.96;95.17
9059;BME280;4564;42.034;25.834;2022-12-07T07:21:13;100392.06;;;10.97;95.83
9059;BME280;4564;42.034;25.834;2022-12-07T07:23:41;100398.44;;;11.04;95.64
9059;BME280;4564;42.034;25.834;2022-12-07T07:26:08;100397.22;;;11.06;95.31
9059;BME280;4564;42.034;25.834;2022-12-07T07:28:34;100401.06;;;11.12;94.82
9059;BME280;4564;42.034;25.834;2022-12-07T07:31:01;100392.25;;;11.10;94.69
9059;BME280;4564;42.034;25.834;2022-12-07T07:33:29;100398.13;;;11.13;93.78
9059;BME280;4564;42.034;25.834;2022-12-07T07:35:56;100401.63;;;10.92;92.56
9059;BME280;4564;42.034;25.834;2022-12-07T07:38:22;100396.56;;;11.04;92.76
9059;BME280;4564;42.034;25.834;2022-12-07T07:40:49;100401.63;;;11.22;93.85
9059;BME280;4564;42.034;25.834;2022-12-07T07:43:16;100402.16;;;11.32;93.11
9059;BME280;4564;42.034;25.834;2022-12-07T07:45:42;100403.97;;;11.61;91.56
9059;BME280;4564;42.034;25.834;2022-12-07T07:48:10;100408.16;;;11.78;89.73
9059;BME280;4564;42.034;25.834;2022-12-07T07:50:38;100405.06;;;11.66;89.31
9059;BME280;4564;42.034;25.834;2022-12-07T07:53:05;100399.94;;;11.57;89.84
9059;BME280;4564;42.034;25.834;2022-12-07T07:55:31;100404.88;;;11.68;88.75
9059;BME280;4564;42.034;25.834;2022-12-07T07:57:58;100408.00;;;11.65;88.63
9059;BME280;4564;42.034;25.834;2022-12-07T08:00:25;100405.06;;;11.66;89.50
9059;BME280;4564;42.034;25.834;2022-12-07T08:02:51;100403.31;;;11.73;90.71
9059;BME280;4564;42.034;25.834;2022-12-07T08:05:18;100399.75;;;11.73;90.04
9059;BME280;4564;42.034;25.834;2022-12-07T08:07:46;100394.13;;;11.74;90.36
9059;BME280;4564;42.034;25.834;2022-12-07T08:10:13;100392.88;;;11.77;89.61
9059;BME280;4564;42.034;25.834;2022-12-07T08:12:40;100393.72;;;11.77;90.01
9059;BME280;4564;42.034;25.834;2022-12-07T08:15:32;100396.94;;;12.02;90.17
9059;BME280;4564;42.034;25.834;2022-12-07T08:17:58;100401.59;;;12.30;89.35
9059;BME280;4564;42.034;25.834;2022-12-07T08:20:25;100401.25;;;12.39;88.83
9059;BME280;4564;42.034;25.834;2022-12-07T08:22:53;100399.94;;;12.56;88.02
9059;BME280;4564;42.034;25.834;2022-12-07T08:25:20;100396.31;;;12.49;86.93
9059;BME280;4564;42.034;25.834;2022-12-07T08:27:47;100394.63;;;12.48;86.74
9059;BME280;4564;42.034;25.834;2022-12-07T08:30:14;100395.59;;;12.69;86.05
9059;BME280;4564;42.034;25.834;2022-12-07T08:32:41;100399.34;;;12.61;86.73
9059;BME280;4564;42.034;25.834;2022-12-07T08:35:08;100407.75;;;12.66;86.77
9059;BME280;4564;42.034;25.834;2022-12-07T08:37:34;100400.16;;;12.89;84.54
9059;BME280;4564;42.034;25.834;2022-12-07T08:40:03;100402.97;;;13.02;83.45
9059;BME280;4564;42.034;25.834;2022-12-07T08:42:29;100403.75;;;12.96;83.73
9059;BME280;4564;42.034;25.834;2022-12-07T08:45:03;100400.97;;;13.18;83.07
9059;BME280;4564;42.034;25.834;2022-12-07T08:47:30;100396.88;;;13.35;82.77
9059;BME280;4564;42.034;25.834;2022-12-07T08:49:56;100395.25;;;13.47;83.73
9059;BME280;4564;42.034;25.834;2022-12-07T08:52:28;100393.22;;;13.62;82.24
9059;BME280;4564;42.034;25.834;2022-12-07T08:54:56;100388.25;;;13.85;81.91
9059;BME280;4564;42.034;25.834;2022-12-07T08:57:25;100378.59;;;13.90;81.32
9059;BME280;4564;42.034;25.834;2022-12-07T08:59:53;100370.22;;;14.11;80.41
9059;BME280;4564;42.034;25.834;2022-12-07T09:02:20;100371.91;;;14.12;80.08
9059;BME280;4564;42.034;25.834;2022-12-07T09:04:46;100364.38;;;14.14;80.33
9059;BME280;4564;42.034;25.834;2022-12-07T09:07:13;100361.63;;;14.20;80.77
9059;BME280;4564;42.034;25.834;2022-12-07T09:09:39;100357.91;;;13.41;81.74
9059;BME280;4564;42.034;25.834;2022-12-07T09:12:06;100354.16;;;13.55;82.50
9059;BME280;4564;42.034;25.834;2022-12-07T09:14:35;100345.38;;;13.60;81.00
9059;BME280;4564;42.034;25.834;2022-12-07T09:17:05;100355.09;;;13.95;81.99
9059;BME280;4564;42.034;25.834;2022-12-07T09:19:32;100346.50;;;13.98;80.65
9059;BME280;4564;42.034;25.834;2022-12-07T09:21:59;100346.50;;;13.85;80.60
9059;BME280;4564;42.034;25.834;2022-12-07T09:24:27;100334.03;;;13.56;82.96
9059;BME280;4564;42.034;25.834;2022-12-07T09:26:53;100344.09;;;13.49;82.44
9059;BME280;4564;42.034;25.834;2022-12-07T09:29:20;100339.25;;;13.44;84.10
9059;BME280;4564;42.034;25.834;2022-12-07T09:31:48;100330.03;;;13.45;83.11
9059;BME280;4564;42.034;25.834;2022-12-07T09:34:15;100340.44;;;13.29;83.55
9059;BME280;4564;42.034;25.834;2022-12-07T09:36:41;100324.59;;;13.52;83.09
9059;BME280;4564;42.034;25.834;2022-12-07T09:39:08;100322.09;;;13.57;82.55
9059;BME280;4564;42.034;25.834;2022-12-07T09:41:36;100325.91;;;13.69;83.25
9059;BME280;4564;42.034;25.834;2022-12-07T09:44:05;100319.59;;;13.82;82.03
9059;BME280;4564;42.034;25.834;2022-12-07T09:46:33;100316.69;;;14.16;82.85
9059;BME280;4564;42.034;25.834;2022-12-07T09:49:02;100310.22;;;14.37;81.07
9059;BME280;4564;42.034;25.834;2022-12-07T09:51:29;100309.97;;;14.65;79.91
9059;BME280;4564;42.034;25.834;2022-12-07T09:53:57;100309.31;;;14.69;79.22
9059;BME280;4564;42.034;25.834;2022-12-07T09:56:24;100312.03;;;14.83;78.92
9059;BME280;4564;42.034;25.834;2022-12-07T09:58:51;100305.91;;;14.94;78.16
9059;BME280;4564;42.034;25.834;2022-12-07T10:01:21;100311.00;;;14.77;79.23
9059;BME280;4564;42.034;25.834;2022-12-07T10:03:49;100316.41;;;14.90;76.10
9059;BME280;4564;42.034;25.834;2022-12-07T10:06:18;100314.28;;;14.99;75.58
9059;BME280;4564;42.034;25.834;2022-12-07T10:08:45;100308.19;;;14.97;76.99
9059;BME280;4564;42.034;25.834;2022-12-07T10:11:11;100300.19;;;14.95;75.03
9059;BME280;4564;42.034;25.834;2022-12-07T10:13:40;100300.56;;;15.12;76.69
9059;BME280;4564;42.034;25.834;2022-12-07T10:16:24;100312.03;;;15.34;75.62
9059;BME280;4564;42.034;25.834;2022-12-07T10:18:55;100302.88;;;15.15;74.78
9059;BME280;4564;42.034;25.834;2022-12-07T10:21:23;100285.25;;;15.04;73.36
9059;BME280;4564;42.034;25.834;2022-12-07T10:24:00;100287.78;;;15.06;75.68
9059;BME280;4564;42.034;25.834;2022-12-07T10:26:29;100288.72;;;15.31;73.40
9059;BME280;4564;42.034;25.834;2022-12-07T10:28:56;100285.00;;;15.12;72.37
9059;BME280;4564;42.034;25.834;2022-12-07T10:31:25;100277.72;;;14.93;73.69
9059;BME280;4564;42.034;25.834;2022-12-07T10:33:52;100278.78;;;14.86;72.87
9059;BME280;4564;42.034;25.834;2022-12-07T10:36:21;100275.94;;;15.19;70.97
9059;BME280;4564;42.034;25.834;2022-12-07T10:38:51;100279.03;;;15.29;70.26
9059;BME280;4564;42.034;25.834;2022-12-07T10:41:18;100269.34;;;14.88;72.32
9059;BME280;4564;42.034;25.834;2022-12-07T10:43:49;100276.06;;;14.79;73.58
9059;BME280;4564;42.034;25.834;2022-12-07T10:49:03;100261.47;;;14.27;74.24
9059;BME280;4564;42.034;25.834;2022-12-07T10:51:36;100260.66;;;14.07;76.95
9059;BME280;4564;42.034;25.834;2022-12-07T10:54:10;100259.19;;;13.92;77.25
9059;BME280;4564;42.034;25.834;2022-12-07T10:59:49;100255.81;;;13.63;76.69
9059;BME280;4564;42.034;25.834;2022-12-07T11:02:21;100256.88;;;13.82;77.14
9059;BME280;4564;42.034;25.834;2022-12-07T11:04:53;100250.78;;;13.93;75.92
9059;BME280;4564;42.034;25.834;2022-12-07T11:07:24;100253.94;;;14.16;76.74
9059;BME280;4564;42.034;25.834;2022-12-07T11:10:00;100245.53;;;14.05;76.13
9059;BME280;4564;42.034;25.834;2022-12-07T11:12:31;100244.50;;;13.93;77.98
9059;BME280;4564;42.034;25.834;2022-12-07T11:15:04;100244.69;;;14.04;78.91
9059;BME280;4564;42.034;25.834;2022-12-07T11:17:42;100235.66;;;14.37;77.08
9059;BME280;4564;42.034;25.834;2022-12-07T11:20:12;100230.81;;;14.45;76.08
9059;BME280;4564;42.034;25.834;2022-12-07T11:22:44;100230.59;;;14.34;75.29
9059;BME280;4564;42.034;25.834;2022-12-07T11:25:18;100226.22;;;14.39;75.57
9059;BME280;4564;42.034;25.834;2022-12-07T11:27:47;100223.84;;;14.62;74.83
9059;BME280;4564;42.034;25.834;2022-12-07T11:30:16;100230.28;;;14.75;74.20
9059;BME280;4564;42.034;25.834;2022-12-07T11:32:59;100217.72;;;14.74;74.93
9059;BME280;4564;42.034;25.834;2022-12-07T11:35:35;100215.53;;;14.89;75.92
9059;BME280;4564;42.034;25.834;2022-12-07T11:38:08;100217.25;;;14.77;73.99
9059;BME280;4564;42.034;25.834;2022-12-07T11:40:37;100210.13;;;14.69;76.04
9059;BME280;4564;42.034;25.834;2022-12-07T11:43:05;100216.41;;;14.83;76.30
9059;BME280;4564;42.034;25.834;2022-12-07T11:45:37;100202.66;;;14.96;76.86
9059;BME280;4564;42.034;25.834;2022-12-07T11:48:05;100201.25;;;14.87;75.50
9059;BME280;4564;42.034;25.834;2022-12-07T11:50:38;100194.94;;;14.86;76.26
9059;BME280;4564;42.034;25.834;2022-12-07T11:53:10;100189.50;;;14.80;76.69
9059;BME280;4564;42.034;25.834;2022-12-07T11:55:43;100196.47;;;14.69;76.72
9059;BME280;4564;42.034;25.834;2022-12-07T11:58:27;100197.13;;;14.64;77.71
9059;BME280;4564;42.034;25.834;2022-12-07T12:01:04;100185.06;;;14.41;76.24
9059;BME280;4564;42.034;25.834;2022-12-07T12:03:34;100175.81;;;14.22;78.31
9059;BME280;4564;42.034;25.834;2022-12-07T12:06:03;100167.22;;;14.18;78.18
9059;BME280;4564;42.034;25.834;2022-12-07T12:08:31;100171.41;;;14.27;77.12
9059;BME280;4564;42.034;25.834;2022-12-07T12:11:03;100164.03;;;14.28;77.06
9059;BME280;4564;42.034;25.834;2022-12-07T12:13:49;100159.25;;;14.10;77.22
9059;BME280;4564;42.034;25.834;2022-12-07T12:16:30;100158.03;;;14.00;78.83
9059;BME280;4564;42.034;25.834;2022-12-07T12:19:17;100151.53;;;13.87;78.58
9059;BME280;4564;42.034;25.834;2022-12-07T12:21:48;100159.34;;;13.64;80.95
9059;BME280;4564;42.034;25.834;2022-12-07T12:24:21;100153.66;;;13.72;80.98
9059;BME280;4564;42.034;25.834;2022-12-07T12:26:50;100156.59;;;13.64;81.60
9059;BME280;4564;42.034;25.834;2022-12-07T12:29:19;100152.84;;;13.65;80.73
9059;BME280;4564;42.034;25.834;2022-12-07T12:32:03;100153.44;;;13.61;81.37
9059;BME280;4564;42.034;25.834;2022-12-07T12:34:34;100155.75;;;13.64;82.16
9059;BME280;4564;42.034;25.834;2022-12-07T12:37:13;100154.91;;;13.50;82.69
9059;BME280;4564;42.034;25.834;2022-12-07T12:42:47;100155.31;;;13.34;83.24
9059;BME280;4564;42.034;25.834;2022-12-07T12:45:18;100153.03;;;13.37;82.97
9059;BME280;4564;42.034;25.834;2022-12-07T12:47:53;100149.88;;;13.34;83.77
9059;BME280;4564;42.034;25.834;2022-12-07T12:50:21;100143.16;;;13.30;83.32
9059;BME280;4564;42.034;25.834;2022-12-07T12:52:52;100145.25;;;13.34;82.56
9059;BME280;4564;42.034;25.834;2022-12-07T12:55:44;100146.06;;;13.09;83.37
9059;BME280;4564;42.034;25.834;2022-12-07T13:03:53;100150.78;;;12.67;89.60
9059;BME280;4564;42.034;25.834;2022-12-07T13:06:31;100139.19;;;12.45;91.23
9059;BME280;4564;42.034;25.834;2022-12-07T13:09:00;100140.31;;;12.23;92.52
9059;BME280;4564;42.034;25.834;2022-12-07T13:11:28;100132.41;;;12.28;92.76
9059;BME280;4564;42.034;25.834;2022-12-07T13:16:39;100140.72;;;12.20;93.12
9059;BME280;4564;42.034;25.834;2022-12-07T13:21:53;100144.84;;;12.09;94.17
9059;BME280;4564;42.034;25.834;2022-12-07T13:24:19;100154.06;;;12.08;94.20
9059;BME280;4564;42.034;25.834;2022-12-07T13:26:46;100153.41;;;12.06;94.86
9059;BME280;4564;42.034;25.834;2022-12-07T13:29:13;100144.38;;;11.99;95.03
9059;BME280;4564;42.034;25.834;2022-12-07T13:31:40;100151.34;;;12.08;94.37
9059;BME280;4564;42.034;25.834;2022-12-07T13:36:48;100159.00;;;11.92;94.88